Terminal Aerodrome Forecast
Issued by NWS Sterling, VA

Home | Current Version | Previous Version | Text Only | Print | Product List | Glossary On
Versions: 1 2 3 4 5 6 7 8 9 10 11 12 13 14 15 16 17 18 19 20 21 22 23 24 25
000
FTUS41 KLWX 271100
TAFIAD
TAF
KIAD 271139Z 2712/2818 00000KT 3SM BR SCT025 OVC050
     FM271400 VRB04KT P6SM SCT025 OVC050
     FM271700 31008KT P6SM BKN050
     FM280300 31007KT P6SM SCT050
     FM281500 32011KT P6SM FEW050=

USA.gov is the U.S. government's official web portal to all federal, state and local government web resources and services.